createdAt,value
2022-11-23T00:01:16.123Z,99293.94
2022-11-23T00:03:43.310Z,99294.38
2022-11-23T00:06:09.869Z,99303.13
2022-11-23T00:08:36.664Z,99301.47
2022-11-23T00:11:03.239Z,99303.69
2022-11-23T00:13:29.779Z,99306.56
2022-11-23T00:15:56.213Z,99308.63
2022-11-23T00:18:22.687Z,99312.47
2022-11-23T00:20:49.132Z,99312.06
2022-11-23T00:23:15.536Z,99321.91
2022-11-23T00:25:46.756Z,99320.28
2022-11-23T00:28:13.342Z,99308.44
2022-11-23T00:30:39.898Z,99306.34
2022-11-23T00:33:06.471Z,99310.41
2022-11-23T00:35:32.881Z,99313.66
2022-11-23T00:37:59.245Z,99313.47
2022-11-23T00:40:25.656Z,99309.81
2022-11-23T00:42:52.072Z,99317.56
2022-11-23T00:45:18.483Z,99320.44
2022-11-23T00:47:44.890Z,99318.63
2022-11-23T00:50:11.293Z,99320.06
2022-11-23T00:52:37.871Z,99315.59
2022-11-23T00:55:04.717Z,99320.44
2022-11-23T00:57:32.867Z,99321.06
2022-11-23T00:59:59.249Z,99318.38
2022-11-23T01:02:25.640Z,99319.63
2022-11-23T01:04:52.062Z,99324.94
2022-11-23T01:07:18.519Z,99329.66
2022-11-23T01:09:45.009Z,99326.38
2022-11-23T01:12:11.483Z,99327.00
2022-11-23T01:14:37.975Z,99324.75
2022-11-23T01:17:04.489Z,99329.47
2022-11-23T01:19:31.168Z,99338.66
2022-11-23T01:21:57.752Z,99337.03
2022-11-23T01:24:24.187Z,99331.72
2022-11-23T01:26:55.227Z,99338.66
2022-11-23T01:29:22.724Z,99336.22
2022-11-23T01:31:49.300Z,99341.50
2022-11-23T01:34:16.686Z,99340.50
2022-11-23T01:36:43.678Z,99338.22
2022-11-23T01:39:10.554Z,99341.53
2022-11-23T01:41:40.256Z,99339.25
2022-11-23T01:44:31.075Z,99338.66
2022-11-23T01:46:59.919Z,99342.34
2022-11-23T01:49:30.120Z,99338.69
2022-11-23T01:52:02.542Z,99327.47
2022-11-23T01:54:34.444Z,99346.84
2022-11-23T01:57:04.901Z,99339.06
2022-11-23T01:59:34.148Z,99335.38
2022-11-23T02:02:02.002Z,99327.22
2022-11-23T02:04:34.075Z,99329.47
2022-11-23T02:07:03.072Z,99334.56
2022-11-23T02:09:32.455Z,99334.34
2022-11-23T02:11:59.347Z,99342.91
2022-11-23T02:14:26.112Z,99339.44
2022-11-23T02:16:52.623Z,99347.81
2022-11-23T02:20:01.037Z,99328.63
2022-11-23T02:22:49.398Z,99345.59
2022-11-23T02:25:36.542Z,99343.72
2022-11-23T02:28:03.467Z,99343.13
2022-11-23T02:30:31.511Z,99346.38
2022-11-23T02:32:57.929Z,99340.25
2022-11-23T02:35:24.342Z,99342.25
2022-11-23T02:37:52.160Z,99338.59
2022-11-23T02:40:34.100Z,99339.44
2022-11-23T02:43:01.436Z,99340.66
2022-11-23T02:45:33.627Z,99343.34
2022-11-23T02:47:59.960Z,99351.31
2022-11-23T02:50:26.358Z,99352.09
2022-11-23T02:52:52.825Z,99354.75
2022-11-23T02:55:19.253Z,99361.09
2022-11-23T02:57:45.737Z,99352.50
2022-11-23T03:00:13.515Z,99350.88
2022-11-23T03:02:39.947Z,99362.72
2022-11-23T03:05:06.836Z,99352.31
2022-11-23T03:07:33.266Z,99358.00
2022-11-23T03:09:59.703Z,99353.53
2022-11-23T03:12:26.094Z,99352.09
2022-11-23T03:14:52.457Z,99351.31
2022-11-23T03:17:19.078Z,99362.13
2022-11-23T03:19:45.528Z,99360.06
2022-11-23T03:22:12.108Z,99363.75
2022-11-23T03:24:38.851Z,99363.38
2022-11-23T03:27:05.390Z,99353.34
2022-11-23T03:29:32.081Z,99360.25
2022-11-23T03:31:58.696Z,99363.94
2022-11-23T03:34:25.109Z,99369.69
2022-11-23T03:36:52.595Z,99377.06
2022-11-23T03:39:19.061Z,99376.00
2022-11-23T03:41:45.528Z,99374.78
2022-11-23T03:44:11.942Z,99354.16
2022-11-23T03:46:38.304Z,99379.50
2022-11-23T03:49:04.879Z,99372.56
2022-11-23T03:51:31.387Z,99377.88
2022-11-23T03:53:57.818Z,99373.56
2022-11-23T03:56:24.683Z,99380.53
2022-11-23T03:58:51.138Z,99384.00
2022-11-23T04:01:17.711Z,99382.56
2022-11-23T04:03:44.303Z,99382.38
2022-11-23T04:06:10.812Z,99375.81
2022-11-23T04:08:37.324Z,99376.22
2022-11-23T04:11:03.784Z,99384.38
2022-11-23T04:13:30.216Z,99385.03
2022-11-23T04:15:56.642Z,99385.63
2022-11-23T04:18:23.116Z,99378.88
2022-11-23T04:20:49.608Z,99382.34
2022-11-23T04:23:16.029Z,99384.00
2022-11-23T04:25:43.002Z,99372.97
2022-11-23T04:28:09.390Z,99376.63
2022-11-23T04:30:35.848Z,99384.81
2022-11-23T04:33:02.317Z,99382.34
2022-11-23T04:35:28.722Z,99379.47
2022-11-23T04:37:55.143Z,99382.34
2022-11-23T04:40:21.539Z,99380.72
2022-11-23T04:42:47.994Z,99381.13
2022-11-23T04:45:14.446Z,99366.78
2022-11-23T04:47:41.449Z,99373.94
2022-11-23T04:50:08.254Z,99373.38
2022-11-23T04:52:34.621Z,99376.03
2022-11-23T04:55:00.994Z,99382.97
2022-11-23T04:57:27.449Z,99377.22
2022-11-23T04:59:53.817Z,99379.22
2022-11-23T05:02:20.256Z,99378.22
2022-11-23T05:04:46.759Z,99380.88
2022-11-23T05:07:13.274Z,99371.47
2022-11-23T05:09:39.714Z,99383.13
2022-11-23T05:12:06.416Z,99381.53
2022-11-23T05:14:32.795Z,99391.31
2022-11-23T05:16:59.131Z,99381.31
2022-11-23T05:19:25.523Z,99383.13
2022-11-23T05:21:51.967Z,99389.06
2022-11-23T05:24:19.448Z,99379.22
2022-11-23T05:26:45.841Z,99387.59
2022-11-23T05:29:12.231Z,99383.97
2022-11-23T05:31:38.638Z,99386.19
2022-11-23T05:34:05.505Z,99389.06
2022-11-23T05:36:31.914Z,99387.22
2022-11-23T05:38:58.370Z,99382.72
2022-11-23T05:41:24.774Z,99383.31
2022-11-23T05:43:51.148Z,99387.81
2022-11-23T05:46:17.650Z,99384.75
2022-11-23T05:48:44.469Z,99391.91
2022-11-23T05:51:11.127Z,99382.28
2022-11-23T05:53:37.570Z,99383.94
2022-11-23T05:56:04.258Z,99365.97
2022-11-23T05:58:30.675Z,99380.66
2022-11-23T06:00:58.867Z,99385.38
2022-11-23T06:03:25.304Z,99382.09
2022-11-23T06:05:52.195Z,99381.53
2022-11-23T06:08:18.652Z,99382.53
2022-11-23T06:10:45.166Z,99387.22
2022-11-23T06:13:11.581Z,99377.63
2022-11-23T06:15:38.033Z,99381.50
2022-11-23T06:18:04.668Z,99381.94
2022-11-23T06:20:31.230Z,99383.19
2022-11-23T06:22:58.042Z,99387.69
2022-11-23T06:25:24.563Z,99388.91
2022-11-23T06:27:59.152Z,99393.22
2022-11-23T06:30:26.946Z,99383.59
2022-11-23T06:32:53.338Z,99388.31
2022-11-23T06:35:20.367Z,99388.72
2022-11-23T06:37:54.505Z,99388.72
2022-11-23T06:40:21.773Z,99387.91
2022-11-23T06:42:48.448Z,99388.91
2022-11-23T06:45:15.138Z,99383.22
2022-11-23T06:47:41.553Z,99371.38
2022-11-23T06:50:09.307Z,99386.47
2022-11-23T06:52:35.697Z,99397.94
2022-11-23T06:55:02.191Z,99402.22
2022-11-23T06:57:28.656Z,99397.09
2022-11-23T06:59:55.072Z,99400.81
2022-11-23T07:02:21.543Z,99403.88
2022-11-23T07:04:47.998Z,99404.09
2022-11-23T07:07:14.422Z,99410.81
2022-11-23T07:09:40.869Z,99411.22
2022-11-23T07:12:07.618Z,99420.81
2022-11-23T07:14:34.001Z,99417.75
2022-11-23T07:17:00.425Z,99415.75
2022-11-23T07:19:26.835Z,99410.66
2022-11-23T07:21:53.336Z,99428.19
2022-11-23T07:24:19.720Z,99428.41
2022-11-23T07:26:46.279Z,99424.75
2022-11-23T07:29:12.814Z,99427.56
2022-11-23T07:31:39.310Z,99422.91
2022-11-23T07:34:05.753Z,99425.75
2022-11-23T07:36:33.320Z,99429.44
2022-11-23T07:38:59.808Z,99432.69
2022-11-23T07:41:27.541Z,99420.66
2022-11-23T07:43:54.420Z,99439.03
2022-11-23T07:46:21.076Z,99449.47
2022-11-23T07:48:47.461Z,99444.97
2022-11-23T07:51:13.977Z,99444.97
2022-11-23T07:53:40.387Z,99446.81
2022-11-23T07:56:07.168Z,99436.81
2022-11-23T07:58:34.649Z,99457.63
2022-11-23T08:01:01.184Z,99456.41
2022-11-23T08:03:28.798Z,99454.56
2022-11-23T08:05:56.466Z,99453.13
2022-11-23T08:08:23.147Z,99450.25
2022-11-23T08:10:53.462Z,99449.66
2022-11-23T08:13:21.467Z,99453.31
2022-11-23T08:15:53.838Z,99454.16
2022-11-23T08:18:20.801Z,99458.22
2022-11-23T08:20:47.248Z,99454.78
2022-11-23T08:23:13.703Z,99451.06
2022-11-23T08:25:40.117Z,99451.06
2022-11-23T08:28:06.614Z,99457.19
2022-11-23T08:30:34.425Z,99459.84
2022-11-23T08:33:08.729Z,99463.13
2022-11-23T08:35:39.521Z,99467.63
2022-11-23T08:38:07.167Z,99456.38
2022-11-23T08:40:33.818Z,99460.66
2022-11-23T08:43:00.296Z,99458.81
2022-11-23T08:45:26.846Z,99460.47
2022-11-23T08:47:54.058Z,99458.81
2022-11-23T08:50:21.383Z,99462.09
2022-11-23T08:52:47.853Z,99454.94
2022-11-23T08:55:14.355Z,99440.41
2022-11-23T08:57:40.839Z,99441.25
2022-11-23T09:00:08.859Z,99428.56
2022-11-23T09:02:35.285Z,99439.59
2022-11-23T09:05:01.721Z,99436.13
2022-11-23T09:07:28.220Z,99425.69
2022-11-23T09:09:54.648Z,99416.69
2022-11-23T09:12:21.123Z,99408.50
2022-11-23T09:14:48.746Z,99396.03
2022-11-23T09:17:16.224Z,99403.97
2022-11-23T09:19:42.724Z,99395.59
2022-11-23T09:22:09.264Z,99389.47
2022-11-23T09:24:37.192Z,99385.56
2022-11-23T09:27:04.031Z,99376.94
2022-11-23T09:29:30.535Z,99375.25
2022-11-23T09:31:57.009Z,99369.94
2022-11-23T09:34:23.535Z,99351.50
2022-11-23T09:36:49.957Z,99360.66
2022-11-23T09:39:16.446Z,99359.16
2022-11-23T09:41:57.536Z,99350.53
2022-11-23T09:44:42.694Z,99349.69
2022-11-23T09:47:18.183Z,99360.22
2022-11-23T09:49:50.202Z,99336.19
2022-11-23T09:52:19.551Z,99333.38
2022-11-23T09:54:48.465Z,99345.91
2022-11-23T09:57:22.383Z,99342.16
2022-11-23T10:00:01.373Z,99344.63
2022-11-23T10:02:31.268Z,99337.34
2022-11-23T10:05:00.094Z,99351.94
2022-11-23T10:07:50.360Z,99331.44
2022-11-23T10:10:19.636Z,99355.44
2022-11-23T10:13:09.791Z,99346.28
2022-11-23T10:16:07.407Z,99335.97
2022-11-23T10:18:49.951Z,99338.50
2022-11-23T10:21:22.410Z,99332.50
2022-11-23T10:23:59.700Z,99329.81
2022-11-23T10:26:31.775Z,99341.88
2022-11-23T10:29:10.029Z,99342.84
2022-11-23T10:31:36.805Z,99337.47
2022-11-23T10:34:11.196Z,99339.09
2022-11-23T10:36:38.999Z,99349.84
2022-11-23T10:39:26.389Z,99338.94
2022-11-23T10:41:54.320Z,99349.25
2022-11-23T10:44:36.925Z,99356.19
2022-11-23T10:47:04.223Z,99368.84
2022-11-23T10:49:33.298Z,99357.41
2022-11-23T10:52:03.634Z,99370.25
2022-11-23T10:54:32.754Z,99360.28
2022-11-23T10:57:01.796Z,99371.00
2022-11-23T10:59:28.280Z,99361.06
2022-11-23T11:02:16.663Z,99347.03
2022-11-23T11:04:44.060Z,99339.88
2022-11-23T11:07:17.131Z,99350.09
2022-11-23T11:09:49.453Z,99346.63
2022-11-23T11:12:19.134Z,99338.69
2022-11-23T11:15:12.345Z,99328.25
2022-11-23T11:17:40.974Z,99312.69
2022-11-23T11:20:28.903Z,99306.41
2022-11-23T11:22:58.110Z,99303.63
2022-11-23T11:25:32.793Z,99299.44
2022-11-23T11:28:00.508Z,99295.25
2022-11-23T11:30:42.937Z,99287.66
2022-11-23T11:33:21.791Z,99287.25
2022-11-23T11:35:53.043Z,99280.84
2022-11-23T11:38:31.600Z,99275.38
2022-11-23T11:41:02.816Z,99280.88
2022-11-23T11:43:39.916Z,99279.19
2022-11-23T11:46:31.258Z,99270.97
2022-11-23T11:49:04.227Z,99267.03
2022-11-23T11:51:41.007Z,99268.31
2022-11-23T11:54:26.206Z,99268.22
2022-11-23T11:57:03.664Z,99260.66
2022-11-23T11:59:42.849Z,99269.25
2022-11-23T12:02:28.613Z,99262.09
2022-11-23T12:04:57.986Z,99254.72
2022-11-23T12:07:36.356Z,99250.13
2022-11-23T12:10:17.412Z,99252.63
2022-11-23T12:12:44.378Z,99249.97
2022-11-23T12:15:41.440Z,99247.88
2022-11-23T12:18:24.182Z,99247.13
2022-11-23T12:21:10.389Z,99245.72
2022-11-23T12:23:54.864Z,99244.31
2022-11-23T12:26:30.034Z,99245.50
2022-11-23T12:29:17.086Z,99235.91
2022-11-23T12:31:49.032Z,99241.63
2022-11-23T12:34:40.809Z,99231.16
2022-11-23T12:37:25.522Z,99230.56
2022-11-23T12:40:01.414Z,99227.47
2022-11-23T12:42:38.977Z,99235.47
2022-11-23T12:45:20.665Z,99230.28
2022-11-23T12:48:11.644Z,99241.75
2022-11-23T12:51:00.443Z,99237.91
2022-11-23T12:53:29.815Z,99248.69
2022-11-23T12:56:23.128Z,99237.22
2022-11-23T12:58:50.884Z,99246.84
2022-11-23T13:01:25.205Z,99247.50
2022-11-23T13:04:20.780Z,99256.00
2022-11-23T13:07:43.277Z,99265.72
2022-11-23T13:10:32.465Z,99277.03
2022-11-23T13:13:15.448Z,99268.66
2022-11-23T13:15:55.855Z,99272.75
2022-11-23T13:18:47.171Z,99276.47
2022-11-23T13:21:34.415Z,99279.41
2022-11-23T13:24:01.198Z,99292.91
2022-11-23T13:26:29.082Z,99290.88
2022-11-23T13:28:58.524Z,99295.59
2022-11-23T13:31:35.950Z,99299.09
2022-11-23T13:34:23.750Z,99280.28
2022-11-23T13:37:15.129Z,99296.03
2022-11-23T13:39:51.772Z,99304.00
2022-11-23T13:42:18.831Z,99294.47
2022-11-23T13:44:45.290Z,99290.59
2022-11-23T13:47:17.533Z,99310.41
2022-11-23T13:49:51.622Z,99320.63
2022-11-23T13:52:20.816Z,99311.59
2022-11-23T13:55:09.727Z,99305.91
2022-11-23T13:57:38.996Z,99311.38
2022-11-23T14:00:43.060Z,99302.00
2022-11-23T14:04:00.584Z,99293.59
2022-11-23T14:06:35.902Z,99297.91
2022-11-23T14:09:08.429Z,99295.25
2022-11-23T14:11:42.874Z,99270.34
2022-11-23T14:14:17.759Z,99277.91
2022-11-23T14:17:15.057Z,99278.72
2022-11-23T14:19:59.745Z,99274.84
2022-11-23T14:23:02.289Z,99272.03
2022-11-23T14:25:38.632Z,99276.50
2022-11-23T14:28:20.260Z,99292.63
2022-11-23T14:30:59.943Z,99294.06
2022-11-23T14:33:39.593Z,99290.16
2022-11-23T14:36:18.399Z,99293.63
2022-11-23T14:38:50.720Z,99307.97
2022-11-23T14:41:23.583Z,99319.63
2022-11-23T14:43:51.166Z,99314.91
2022-11-23T14:46:20.678Z,99327.78
2022-11-23T14:48:48.799Z,99333.09
2022-11-23T14:51:20.450Z,99320.41
2022-11-23T14:53:50.870Z,99329.22
2022-11-23T14:56:48.581Z,99329.44
2022-11-23T14:59:23.446Z,99330.41
2022-11-23T15:01:53.015Z,99342.91
2022-11-23T15:04:34.829Z,99339.84
2022-11-23T15:07:16.833Z,99337.41
2022-11-23T15:10:08.376Z,99346.56
2022-11-23T15:12:42.551Z,99350.50
2022-11-23T15:15:27.445Z,99342.91
2022-11-23T15:17:55.876Z,99348.84
2022-11-23T15:20:25.271Z,99342.94
2022-11-23T15:22:51.874Z,99349.66
2022-11-23T15:25:19.783Z,99349.28
2022-11-23T15:27:51.280Z,99353.16
2022-11-23T15:30:21.610Z,99362.53
2022-11-23T15:32:59.653Z,99362.13
2022-11-23T15:35:37.779Z,99375.66
2022-11-23T15:38:10.801Z,99374.00
2022-11-23T15:40:40.634Z,99364.63
2022-11-23T15:43:13.301Z,99392.59
2022-11-23T15:45:45.853Z,99395.25
2022-11-23T15:48:16.219Z,99396.31
2022-11-23T15:50:58.837Z,99396.31
2022-11-23T15:53:29.116Z,99402.19
2022-11-23T15:56:00.468Z,99407.53
2022-11-23T15:58:28.646Z,99397.06
2022-11-23T16:01:12.179Z,99400.97
2022-11-23T16:03:52.566Z,99412.00
2022-11-23T16:06:34.991Z,99410.19
2022-11-23T16:09:02.013Z,99417.34
2022-11-23T16:11:30.315Z,99414.88
2022-11-23T16:14:17.663Z,99426.94
2022-11-23T16:16:46.589Z,99423.66
2022-11-23T16:19:23.025Z,99432.47
2022-11-23T16:21:50.680Z,99445.34
2022-11-23T16:24:24.767Z,99439.44
2022-11-23T16:26:52.046Z,99442.69
2022-11-23T16:29:27.139Z,99436.78
2022-11-23T16:31:59.694Z,99447.59
2022-11-23T16:34:29.790Z,99453.94
2022-11-23T16:36:56.667Z,99452.91
2022-11-23T16:39:24.246Z,99459.47
2022-11-23T16:41:51.609Z,99468.44
2022-11-23T16:44:19.064Z,99454.34
2022-11-23T16:46:47.516Z,99465.81
2022-11-23T16:49:19.925Z,99469.06
2022-11-23T16:51:57.162Z,99474.19
2022-11-23T16:54:25.287Z,99479.13
2022-11-23T16:56:52.350Z,99484.22
2022-11-23T16:59:19.541Z,99489.56
2022-11-23T17:01:50.381Z,99498.72
2022-11-23T17:04:19.363Z,99497.75
2022-11-23T17:06:45.911Z,99503.66
2022-11-23T17:09:12.377Z,99509.19
2022-11-23T17:11:44.548Z,99511.84
2022-11-23T17:14:18.546Z,99517.38
2022-11-23T17:16:45.656Z,99529.06
2022-11-23T17:19:17.205Z,99536.63
2022-11-23T17:21:44.810Z,99531.72
2022-11-23T17:24:13.614Z,99537.66
2022-11-23T17:26:46.302Z,99543.19
2022-11-23T17:29:16.518Z,99541.94
2022-11-23T17:31:45.488Z,99541.09
2022-11-23T17:34:12.796Z,99551.16
2022-11-23T17:36:41.800Z,99545.44
2022-11-23T17:39:15.445Z,99551.16
2022-11-23T17:41:41.890Z,99559.31
2022-11-23T17:44:09.797Z,99554.03
2022-11-23T17:46:36.404Z,99551.75
2022-11-23T17:49:02.936Z,99554.63
2022-11-23T17:51:29.940Z,99557.09
2022-11-23T17:53:56.874Z,99559.34
2022-11-23T17:56:25.805Z,99568.16
2022-11-23T17:58:52.893Z,99572.84
2022-11-23T18:01:21.897Z,99584.09
2022-11-23T18:03:48.817Z,99580.84
2022-11-23T18:06:18.158Z,99566.53
2022-11-23T18:08:45.864Z,99593.91
2022-11-23T18:11:12.401Z,99596.56
2022-11-23T18:13:39.858Z,99597.00
2022-11-23T18:16:07.489Z,99594.56
2022-11-23T18:18:33.977Z,99573.09
2022-11-23T18:21:00.896Z,99605.59
2022-11-23T18:23:28.361Z,99608.47
2022-11-23T18:26:03.225Z,99612.34
2022-11-23T18:28:30.532Z,99616.44
2022-11-23T18:30:57.444Z,99624.00
2022-11-23T18:33:24.394Z,99615.84
2022-11-23T18:35:50.830Z,99621.38
2022-11-23T18:38:17.328Z,99628.50
2022-11-23T18:40:43.865Z,99629.34
2022-11-23T18:43:11.303Z,99631.38
2022-11-23T18:45:38.087Z,99626.47
2022-11-23T18:48:05.214Z,99638.75
2022-11-23T18:50:31.711Z,99643.44
2022-11-23T18:52:58.211Z,99649.16
2022-11-23T18:55:24.752Z,99651.22
2022-11-23T18:57:55.390Z,99656.53
2022-11-23T19:00:22.653Z,99656.72
2022-11-23T19:03:00.382Z,99658.59
2022-11-23T19:05:30.038Z,99658.78
2022-11-23T19:08:04.197Z,99664.31
2022-11-23T19:10:32.589Z,99664.50
2022-11-23T19:13:04.910Z,99669.19
2022-11-23T19:15:32.158Z,99670.25
2022-11-23T19:17:58.657Z,99671.28
2022-11-23T19:20:25.693Z,99682.91
2022-11-23T19:22:52.552Z,99686.41
2022-11-23T19:25:19.363Z,99683.72
2022-11-23T19:27:48.706Z,99684.94
2022-11-23T19:30:15.501Z,99684.94
2022-11-23T19:32:42.089Z,99690.25
2022-11-23T19:35:08.932Z,99691.72
2022-11-23T19:37:36.440Z,99693.53
2022-11-23T19:40:03.005Z,99696.19
2022-11-23T19:42:29.444Z,99693.34
2022-11-23T19:44:55.841Z,99703.97
2022-11-23T19:47:23.026Z,99687.22
2022-11-23T19:49:49.811Z,99691.09
2022-11-23T19:52:16.328Z,99700.09
2022-11-23T19:54:42.828Z,99697.84
2022-11-23T19:57:09.349Z,99695.00
2022-11-23T19:59:36.218Z,99689.06
2022-11-23T20:02:02.820Z,99698.47
2022-11-23T20:04:29.709Z,99695.63
2022-11-23T20:06:56.170Z,99701.72
2022-11-23T20:09:23.634Z,99709.13
2022-11-23T20:11:51.498Z,99720.75
2022-11-23T20:14:18.448Z,99718.31
2022-11-23T20:16:44.928Z,99719.34
2022-11-23T20:19:11.722Z,99719.13
2022-11-23T20:21:38.312Z,99718.72
2022-11-23T20:24:07.430Z,99716.06
2022-11-23T20:26:36.402Z,99720.56
2022-11-23T20:29:03.926Z,99728.72
2022-11-23T20:31:31.910Z,99734.88
2022-11-23T20:33:59.284Z,99734.47
2022-11-23T20:36:36.435Z,99722.38
2022-11-23T20:39:08.361Z,99742.25
2022-11-23T20:41:36.565Z,99738.78
2022-11-23T20:44:14.003Z,99738.97
2022-11-23T20:49:30.155Z,99748.81
2022-11-23T20:51:57.059Z,99756.16
2022-11-23T20:54:23.524Z,99757.00
2022-11-23T20:56:49.902Z,99763.72
2022-11-23T20:59:19.827Z,99768.22
2022-11-23T21:01:46.414Z,99763.09
2022-11-23T21:04:13.360Z,99772.13
2022-11-23T21:06:40.340Z,99782.56
2022-11-23T21:09:08.923Z,99786.44
2022-11-23T21:11:54.464Z,99795.22
2022-11-23T21:14:23.818Z,99791.78
2022-11-23T21:16:56.077Z,99810.78
2022-11-23T21:19:28.125Z,99806.47
2022-11-23T21:21:55.591Z,99807.31
2022-11-23T21:24:22.165Z,99814.88
2022-11-23T21:26:48.982Z,99816.91
2022-11-23T21:29:17.017Z,99810.34
2022-11-23T21:31:45.774Z,99821.81
2022-11-23T21:34:22.359Z,99822.84
2022-11-23T21:36:49.554Z,99831.84
2022-11-23T21:39:16.845Z,99837.00
2022-11-23T21:41:44.314Z,99830.44
2022-11-23T21:44:11.524Z,99843.31
2022-11-23T21:46:39.808Z,99843.94
2022-11-23T21:49:07.129Z,99843.53
2022-11-23T21:51:34.691Z,99840.84
2022-11-23T21:54:03.862Z,99840.06
2022-11-23T21:56:30.370Z,99849.88
2022-11-23T21:58:57.898Z,99847.84
2022-11-23T22:01:29.554Z,99856.22
2022-11-23T22:03:58.676Z,99855.63
2022-11-23T22:06:25.632Z,99857.66
2022-11-23T22:08:54.381Z,99864.59
2022-11-23T22:11:23.424Z,99865.84
2022-11-23T22:13:55.533Z,99858.06
2022-11-23T22:16:33.669Z,99869.53
2022-11-23T22:19:01.109Z,99870.09
2022-11-23T22:21:36.426Z,99869.31
2022-11-23T22:24:04.275Z,99871.75
2022-11-23T22:26:31.145Z,99875.22
2022-11-23T22:29:02.441Z,99878.28
2022-11-23T22:31:33.968Z,99880.13
2022-11-23T22:34:02.500Z,99889.34
2022-11-23T22:36:29.842Z,99879.94
2022-11-23T22:39:01.590Z,99880.13
2022-11-23T22:41:30.188Z,99874.19
2022-11-23T22:43:57.874Z,99888.50
2022-11-23T22:46:25.559Z,99893.41
2022-11-23T22:48:53.324Z,99901.59
2022-11-23T22:51:23.340Z,99902.22
2022-11-23T22:53:58.891Z,99903.06
2022-11-23T22:56:26.522Z,99904.88
2022-11-23T22:58:53.611Z,99903.47
2022-11-23T23:01:24.439Z,99896.50
2022-11-23T23:03:56.056Z,99901.03
2022-11-23T23:06:25.087Z,99898.16
2022-11-23T23:08:57.268Z,99895.09
2022-11-23T23:11:26.235Z,99891.81
2022-11-23T23:13:53.690Z,99886.91
2022-11-23T23:16:21.545Z,99890.81
2022-11-23T23:18:48.511Z,99895.69
2022-11-23T23:21:17.495Z,99866.59
2022-11-23T23:23:49.218Z,99892.44
2022-11-23T23:26:18.617Z,99886.31
2022-11-23T23:28:47.053Z,99891.19
2022-11-23T23:31:16.247Z,99896.34
2022-11-23T23:33:43.982Z,99894.06
2022-11-23T23:36:15.827Z,99888.97
2022-11-23T23:38:42.460Z,99884.69
2022-11-23T23:41:11.280Z,99905.78
2022-11-23T23:43:37.958Z,99916.81
2022-11-23T23:46:09.571Z,99919.47
2022-11-23T23:48:38.028Z,99922.75
2022-11-23T23:51:09.376Z,99926.00
2022-11-23T23:53:36.984Z,99926.81
2022-11-23T23:56:07.664Z,99946.28
2022-11-23T23:58:37.247Z,99947.88
